Chilcoot, CA

1:17 AM PDT on September 21, 2014 (GMT -0700)
Reno-Tahoe International | Change Station
CLOSE
Current Station
Airport
Location: Reno,
Elevation: 4400 ft
Nearby Weather Stations

Elev 4400 ft 39.51 °N, 119.77 °W | Updated 22 minutes ago

Mostly Cloudy
Mostly Cloudy
71 °F
Feels Like 71 °F
N
8
Wind Variable Wind from SSE

Today
High -- | Low -- °F
--% Chance of Precip.
Yesterday
High -- | Low -- °F
Precip. -- in
6:47 AM 6:59 PM
Waning Crescent, 8% visible
Pressure 29.90 in
Visibility 10.0 miles
Clouds Scattered Clouds 10000 ft
Overcast 20000 ft
Dew Point 42 °F
Humidity 35%
Rainfall 0.00 in
Snow Depth Not available.
UV 0 out of 12
Pollen 6.70 out of 12
Air Quality Not available.
Flu Activity Not available.
METAR KRNO 210755Z 15007KT 10SM SCT100 OVC200 22/06 A3008 RMK AO2 SLP125 T02170056 403110133

More Conditions Fewer Conditions

Pressure 29.90 in
Visibility 10.0 miles
Clouds Scattered Clouds 10000 ft
Overcast 20000 ft
Dew Point 42 °F
Humidity 35%
Rainfall 0.00 in
Snow Depth Not available.
UV 0 out of 12
Pollen 6.70 out of 12
Air Quality Not available.
Flu Activity Not available.
METAR KRNO 210755Z 15007KT 10SM SCT100 OVC200 22/06 A3008 RMK AO2 SLP125 T02170056 403110133

More Conditions Fewer Conditions

10-Day Weather Forecast

Almanac

Astronomy

Sep. 21, 2014 Rise Set
Actual Time 6:47 AM PDT 6:59 PM PDT
Civil Twilight 6:20 AM PDT 7:26 PM PDT
Nautical Twilight 5:49 AM PDT 7:57 PM PDT
Astronomical Twilight 5:16 AM PDT 8:29 PM PDT
Moon 4:26 AM PDT 5:38 PM PDT
Length of Visible Light 13h 05m
Length of Day
12h 11m
Tomorrow will be 2m 35s shorter.
Waning Crescent, 8% of the Moon is Illuminated
Today
Waning Crescent
Sep 24
New
Oct 1
First Quarter
Oct 8
Full
Oct 15
Last Quarter

Today's Extremes

State Highs State Lows

Community

WunderPhotos

Upload Photos

1,755,101 photos uploaded!

Nearby

Snow Depth

Station Depth Elevation
Spratt Creek 1 in 6200 ft
Adin Mountain 0 in 6200 ft
Heavenly Valley 0 in 8850 ft
Summit Meadow 1 in 9122 ft
Tahoe City Cross 0 in 6750 ft

Earthquake Activity

City Distance Mag. Time & Date
No recent earthquake activity has been reported nearby.
Minimum magnitude displayed is 2.5.

Coastal Water Temperatures

Place Temperature
No Stations Reporting

Nearby Weather Stations